Terminal Aerodrome Forecast
Issued by NWS

Home | Current Version | Previous Version | Graphics & Text | Print | Product List | Glossary On
Versions: 1 2 3 4 5 6 7 8 9 10 11 12 13 14 15 16 17 18 19 20 21 22
000
FTUS43 KGRB 270522
TAFCWA
TAF
KCWA 270522Z 2706/2806 VRB03KT P6SM SCT100 BKN120
     FM271000 12003KT 6SM -RA BR SCT020 OVC060
     FM271200 10006KT 5SM -SHRA BR BKN020
     FM271800 13007KT P6SM BKN025
      AMD LTD TO CLD VIS AND WIND TIL 271100=

USA.gov is the U.S. government's official web portal to all federal, state and local government web resources and services.